sensor_id;sensor_type;location;lat;lon;timestamp;temperature;humidity
1578;DHT22;57623;53.608;10.004;2023-08-06T00:00:26;16.80;99.90
1578;DHT22;57623;53.608;10.004;2023-08-06T00:02:54;16.80;99.90
1578;DHT22;57623;53.608;10.004;2023-08-06T00:05:22;16.80;99.90
1578;DHT22;57623;53.608;10.004;2023-08-06T00:07:50;16.70;99.90
1578;DHT22;57623;53.608;10.004;2023-08-06T00:10:20;16.60;99.90
1578;DHT22;57623;53.608;10.004;2023-08-06T00:12:48;16.60;99.90
1578;DHT22;57623;53.608;10.004;2023-08-06T00:15:16;16.60;99.90
1578;DHT22;57623;53.608;10.004;2023-08-06T00:17:44;16.50;99.90
1578;DHT22;57623;53.608;10.004;2023-08-06T00:20:12;16.50;99.90
1578;DHT22;57623;53.608;10.004;2023-08-06T00:22:40;16.50;99.90
1578;DHT22;57623;53.608;10.004;2023-08-06T00:25:08;16.40;99.90
1578;DHT22;57623;53.608;10.004;2023-08-06T00:27:38;16.40;99.90
1578;DHT22;57623;53.608;10.004;2023-08-06T00:30:06;16.40;99.90
1578;DHT22;57623;53.608;10.004;2023-08-06T00:32:35;16.30;99.90
1578;DHT22;57623;53.608;10.004;2023-08-06T00:35:03;16.30;99.90
1578;DHT22;57623;53.608;10.004;2023-08-06T00:37:31;16.20;99.90
1578;DHT22;57623;53.608;10.004;2023-08-06T00:39:59;16.20;99.90
1578;DHT22;57623;53.608;10.004;2023-08-06T00:42:27;16.20;99.90
1578;DHT22;57623;53.608;10.004;2023-08-06T00:44:56;16.20;99.90
1578;DHT22;57623;53.608;10.004;2023-08-06T00:47:25;16.20;99.90
1578;DHT22;57623;53.608;10.004;2023-08-06T00:49:53;16.20;99.90
1578;DHT22;57623;53.608;10.004;2023-08-06T00:52:21;16.20;99.90
1578;DHT22;57623;53.608;10.004;2023-08-06T00:54:50;16.20;99.90
1578;DHT22;57623;53.608;10.004;2023-08-06T00:57:18;16.20;99.90
1578;DHT22;57623;53.608;10.004;2023-08-06T00:59:46;16.20;99.90
1578;DHT22;57623;53.608;10.004;2023-08-06T01:02:16;16.20;99.90
1578;DHT22;57623;53.608;10.004;2023-08-06T01:04:44;16.20;99.90
1578;DHT22;57623;53.608;10.004;2023-08-06T01:07:19;16.10;99.90
1578;DHT22;57623;53.608;10.004;2023-08-06T01:09:57;16.10;99.90
1578;DHT22;57623;53.608;10.004;2023-08-06T01:12:34;16.10;99.90
1578;DHT22;57623;53.608;10.004;2023-08-06T01:15:11;16.10;99.90
1578;DHT22;57623;53.608;10.004;2023-08-06T01:17:42;16.00;99.90
1578;DHT22;57623;53.608;10.004;2023-08-06T01:20:10;16.00;99.90
1578;DHT22;57623;53.608;10.004;2023-08-06T01:22:40;16.00;99.90
1578;DHT22;57623;53.608;10.004;2023-08-06T01:25:08;16.00;99.90
1578;DHT22;57623;53.608;10.004;2023-08-06T01:27:42;16.00;99.90
1578;DHT22;57623;53.608;10.004;2023-08-06T01:30:13;16.00;99.90
1578;DHT22;57623;53.608;10.004;2023-08-06T01:32:46;16.00;99.90
1578;DHT22;57623;53.608;10.004;2023-08-06T01:35:18;16.00;99.90
1578;DHT22;57623;53.608;10.004;2023-08-06T01:37:48;16.00;99.90
1578;DHT22;57623;53.608;10.004;2023-08-06T01:40:16;16.00;99.90
1578;DHT22;57623;53.608;10.004;2023-08-06T01:42:44;16.00;99.90
1578;DHT22;57623;53.608;10.004;2023-08-06T01:45:12;15.90;99.90
1578;DHT22;57623;53.608;10.004;2023-08-06T01:47:40;15.90;99.90
1578;DHT22;57623;53.608;10.004;2023-08-06T01:50:09;15.90;99.90
1578;DHT22;57623;53.608;10.004;2023-08-06T01:52:37;15.90;99.90
1578;DHT22;57623;53.608;10.004;2023-08-06T01:55:06;15.90;99.90
1578;DHT22;57623;53.608;10.004;2023-08-06T01:57:34;15.90;99.90
1578;DHT22;57623;53.608;10.004;2023-08-06T02:00:03;15.90;99.90
1578;DHT22;57623;53.608;10.004;2023-08-06T02:02:31;15.90;99.90
1578;DHT22;57623;53.608;10.004;2023-08-06T02:05:00;15.80;99.90
1578;DHT22;57623;53.608;10.004;2023-08-06T02:07:28;15.90;99.90
1578;DHT22;57623;53.608;10.004;2023-08-06T02:09:57;15.80;99.90
1578;DHT22;57623;53.608;10.004;2023-08-06T02:12:27;15.90;99.90
1578;DHT22;57623;53.608;10.004;2023-08-06T02:14:55;15.80;99.90
1578;DHT22;57623;53.608;10.004;2023-08-06T02:17:23;15.80;99.90
1578;DHT22;57623;53.608;10.004;2023-08-06T02:19:51;15.90;99.90
1578;DHT22;57623;53.608;10.004;2023-08-06T02:22:19;15.90;99.90
1578;DHT22;57623;53.608;10.004;2023-08-06T02:24:49;15.90;99.90
1578;DHT22;57623;53.608;10.004;2023-08-06T02:27:17;15.90;99.90
1578;DHT22;57623;53.608;10.004;2023-08-06T02:29:46;15.90;99.90
1578;DHT22;57623;53.608;10.004;2023-08-06T02:32:14;15.80;99.90
1578;DHT22;57623;53.608;10.004;2023-08-06T02:34:42;15.90;99.90
1578;DHT22;57623;53.608;10.004;2023-08-06T02:37:10;15.90;99.90
1578;DHT22;57623;53.608;10.004;2023-08-06T02:39:38;15.80;99.90
1578;DHT22;57623;53.608;10.004;2023-08-06T02:42:07;15.80;99.90
1578;DHT22;57623;53.608;10.004;2023-08-06T02:44:35;15.80;99.90
1578;DHT22;57623;53.608;10.004;2023-08-06T02:47:05;15.80;99.90
1578;DHT22;57623;53.608;10.004;2023-08-06T02:49:33;15.80;99.90
1578;DHT22;57623;53.608;10.004;2023-08-06T02:52:01;15.70;99.90
1578;DHT22;57623;53.608;10.004;2023-08-06T02:54:29;15.80;99.90
1578;DHT22;57623;53.608;10.004;2023-08-06T02:56:58;15.70;99.90
1578;DHT22;57623;53.608;10.004;2023-08-06T02:59:25;15.70;99.90
1578;DHT22;57623;53.608;10.004;2023-08-06T03:01:53;15.70;99.90
1578;DHT22;57623;53.608;10.004;2023-08-06T03:04:23;15.80;99.90
1578;DHT22;57623;53.608;10.004;2023-08-06T03:06:51;15.70;99.90
1578;DHT22;57623;53.608;10.004;2023-08-06T03:09:19;15.70;99.90
1578;DHT22;57623;53.608;10.004;2023-08-06T03:11:47;15.70;99.90
1578;DHT22;57623;53.608;10.004;2023-08-06T03:14:16;15.70;99.90
1578;DHT22;57623;53.608;10.004;2023-08-06T03:16:44;15.60;99.90
1578;DHT22;57623;53.608;10.004;2023-08-06T03:19:12;15.70;99.90
1578;DHT22;57623;53.608;10.004;2023-08-06T03:21:41;15.70;99.90
1578;DHT22;57623;53.608;10.004;2023-08-06T03:24:09;15.70;99.90
1578;DHT22;57623;53.608;10.004;2023-08-06T03:26:37;15.60;99.90
1578;DHT22;57623;53.608;10.004;2023-08-06T03:29:05;15.70;99.90
1578;DHT22;57623;53.608;10.004;2023-08-06T03:31:33;15.60;99.90
1578;DHT22;57623;53.608;10.004;2023-08-06T03:34:01;15.60;99.90
1578;DHT22;57623;53.608;10.004;2023-08-06T03:36:29;15.50;99.90
1578;DHT22;57623;53.608;10.004;2023-08-06T03:38:59;15.50;99.90
1578;DHT22;57623;53.608;10.004;2023-08-06T03:41:26;15.50;99.90
1578;DHT22;57623;53.608;10.004;2023-08-06T03:43:54;15.50;99.90
1578;DHT22;57623;53.608;10.004;2023-08-06T03:46:22;15.50;99.90
1578;DHT22;57623;53.608;10.004;2023-08-06T03:48:51;15.50;99.90
1578;DHT22;57623;53.608;10.004;2023-08-06T03:51:19;15.50;99.90
1578;DHT22;57623;53.608;10.004;2023-08-06T03:53:47;15.50;99.90
1578;DHT22;57623;53.608;10.004;2023-08-06T03:56:16;15.50;99.90
1578;DHT22;57623;53.608;10.004;2023-08-06T03:58:44;15.50;99.90
1578;DHT22;57623;53.608;10.004;2023-08-06T04:01:12;15.50;99.90
1578;DHT22;57623;53.608;10.004;2023-08-06T04:03:40;15.40;99.90
1578;DHT22;57623;53.608;10.004;2023-08-06T04:06:08;15.40;99.90
1578;DHT22;57623;53.608;10.004;2023-08-06T04:08:36;15.40;99.90
1578;DHT22;57623;53.608;10.004;2023-08-06T04:11:04;15.50;99.90
1578;DHT22;57623;53.608;10.004;2023-08-06T04:13:34;15.40;99.90
1578;DHT22;57623;53.608;10.004;2023-08-06T04:16:02;15.50;99.90
1578;DHT22;57623;53.608;10.004;2023-08-06T04:18:30;15.50;99.90
1578;DHT22;57623;53.608;10.004;2023-08-06T04:20:58;15.40;99.90
1578;DHT22;57623;53.608;10.004;2023-08-06T04:23:26;15.50;99.90
1578;DHT22;57623;53.608;10.004;2023-08-06T04:25:56;15.40;99.90
1578;DHT22;57623;53.608;10.004;2023-08-06T04:28:24;15.40;99.90
1578;DHT22;57623;53.608;10.004;2023-08-06T04:30:53;15.40;99.90
1578;DHT22;57623;53.608;10.004;2023-08-06T04:33:21;15.40;99.90
1578;DHT22;57623;53.608;10.004;2023-08-06T04:35:54;15.40;99.90
1578;DHT22;57623;53.608;10.004;2023-08-06T04:38:23;15.40;99.90
1578;DHT22;57623;53.608;10.004;2023-08-06T04:40:52;15.40;99.90
1578;DHT22;57623;53.608;10.004;2023-08-06T04:43:20;15.30;99.90
1578;DHT22;57623;53.608;10.004;2023-08-06T04:45:48;15.30;99.90
1578;DHT22;57623;53.608;10.004;2023-08-06T04:48:17;15.30;99.90
1578;DHT22;57623;53.608;10.004;2023-08-06T04:50:46;15.30;99.90
1578;DHT22;57623;53.608;10.004;2023-08-06T04:53:14;15.30;99.90
1578;DHT22;57623;53.608;10.004;2023-08-06T04:55:42;15.30;99.90
1578;DHT22;57623;53.608;10.004;2023-08-06T04:58:10;15.30;99.90
1578;DHT22;57623;53.608;10.004;2023-08-06T05:00:39;15.30;99.90
1578;DHT22;57623;53.608;10.004;2023-08-06T05:03:07;15.30;99.90
1578;DHT22;57623;53.608;10.004;2023-08-06T05:05:36;15.30;99.90
1578;DHT22;57623;53.608;10.004;2023-08-06T05:08:04;15.30;99.90
1578;DHT22;57623;53.608;10.004;2023-08-06T05:10:32;15.30;99.90
1578;DHT22;57623;53.608;10.004;2023-08-06T05:13:00;15.30;99.90
1578;DHT22;57623;53.608;10.004;2023-08-06T05:15:28;15.30;99.90
1578;DHT22;57623;53.608;10.004;2023-08-06T05:17:56;15.30;99.90
1578;DHT22;57623;53.608;10.004;2023-08-06T05:20:24;15.30;99.90
1578;DHT22;57623;53.608;10.004;2023-08-06T05:22:53;15.30;99.90
1578;DHT22;57623;53.608;10.004;2023-08-06T05:25:21;15.30;99.90
1578;DHT22;57623;53.608;10.004;2023-08-06T05:27:49;15.30;99.90
1578;DHT22;57623;53.608;10.004;2023-08-06T05:30:17;15.30;99.90
1578;DHT22;57623;53.608;10.004;2023-08-06T05:32:45;15.30;99.90
1578;DHT22;57623;53.608;10.004;2023-08-06T05:35:13;15.30;99.90
1578;DHT22;57623;53.608;10.004;2023-08-06T05:37:41;15.30;99.90
1578;DHT22;57623;53.608;10.004;2023-08-06T05:40:11;15.30;99.90
1578;DHT22;57623;53.608;10.004;2023-08-06T05:42:39;15.40;99.90
1578;DHT22;57623;53.608;10.004;2023-08-06T05:45:08;15.30;99.90
1578;DHT22;57623;53.608;10.004;2023-08-06T05:47:36;15.30;99.90
1578;DHT22;57623;53.608;10.004;2023-08-06T05:50:05;15.30;99.90
1578;DHT22;57623;53.608;10.004;2023-08-06T05:52:33;15.30;99.90
1578;DHT22;57623;53.608;10.004;2023-08-06T05:55:01;15.30;99.90
1578;DHT22;57623;53.608;10.004;2023-08-06T05:57:31;15.40;99.90
1578;DHT22;57623;53.608;10.004;2023-08-06T05:59:59;15.40;99.90
1578;DHT22;57623;53.608;10.004;2023-08-06T06:02:27;15.50;99.90
1578;DHT22;57623;53.608;10.004;2023-08-06T06:04:55;15.40;99.90
1578;DHT22;57623;53.608;10.004;2023-08-06T06:07:23;15.50;99.90
1578;DHT22;57623;53.608;10.004;2023-08-06T06:09:51;15.50;99.90
1578;DHT22;57623;53.608;10.004;2023-08-06T06:12:19;15.50;99.90
1578;DHT22;57623;53.608;10.004;2023-08-06T06:14:50;15.50;99.90
1578;DHT22;57623;53.608;10.004;2023-08-06T06:17:18;15.60;99.90
1578;DHT22;57623;53.608;10.004;2023-08-06T06:19:46;15.60;99.90
1578;DHT22;57623;53.608;10.004;2023-08-06T06:22:14;15.60;99.90
1578;DHT22;57623;53.608;10.004;2023-08-06T06:24:42;15.60;99.90
1578;DHT22;57623;53.608;10.004;2023-08-06T06:27:10;15.60;99.90
1578;DHT22;57623;53.608;10.004;2023-08-06T06:29:38;15.60;99.90
1578;DHT22;57623;53.608;10.004;2023-08-06T06:32:07;15.60;99.90
1578;DHT22;57623;53.608;10.004;2023-08-06T06:34:35;15.60;99.90
1578;DHT22;57623;53.608;10.004;2023-08-06T06:37:04;15.60;99.90
1578;DHT22;57623;53.608;10.004;2023-08-06T06:39:32;15.70;99.90
1578;DHT22;57623;53.608;10.004;2023-08-06T06:42:01;15.70;99.90
1578;DHT22;57623;53.608;10.004;2023-08-06T06:44:28;15.70;99.90
1578;DHT22;57623;53.608;10.004;2023-08-06T06:46:56;15.80;99.90
1578;DHT22;57623;53.608;10.004;2023-08-06T06:49:26;15.80;99.90
1578;DHT22;57623;53.608;10.004;2023-08-06T06:51:54;15.80;99.90
1578;DHT22;57623;53.608;10.004;2023-08-06T06:54:22;15.90;99.90
1578;DHT22;57623;53.608;10.004;2023-08-06T06:56:50;16.00;99.90
1578;DHT22;57623;53.608;10.004;2023-08-06T06:59:18;16.00;99.90
1578;DHT22;57623;53.608;10.004;2023-08-06T07:01:46;16.00;99.90
1578;DHT22;57623;53.608;10.004;2023-08-06T07:04:14;16.10;99.90
1578;DHT22;57623;53.608;10.004;2023-08-06T07:06:43;16.10;99.90
1578;DHT22;57623;53.608;10.004;2023-08-06T07:09:11;16.20;99.90
1578;DHT22;57623;53.608;10.004;2023-08-06T07:11:39;16.20;99.90
1578;DHT22;57623;53.608;10.004;2023-08-06T07:14:10;16.30;99.90
1578;DHT22;57623;53.608;10.004;2023-08-06T07:16:38;16.30;99.90
1578;DHT22;57623;53.608;10.004;2023-08-06T07:19:06;16.30;99.90
1578;DHT22;57623;53.608;10.004;2023-08-06T07:21:34;16.40;99.90
1578;DHT22;57623;53.608;10.004;2023-08-06T07:24:03;16.50;99.90
1578;DHT22;57623;53.608;10.004;2023-08-06T07:26:31;16.50;99.90
1578;DHT22;57623;53.608;10.004;2023-08-06T07:28:59;16.50;99.90
1578;DHT22;57623;53.608;10.004;2023-08-06T07:31:27;16.60;99.90
1578;DHT22;57623;53.608;10.004;2023-08-06T07:33:55;16.60;99.90
1578;DHT22;57623;53.608;10.004;2023-08-06T07:36:23;16.60;99.90
1578;DHT22;57623;53.608;10.004;2023-08-06T07:38:51;16.60;99.90
1578;DHT22;57623;53.608;10.004;2023-08-06T07:41:24;16.60;99.90
1578;DHT22;57623;53.608;10.004;2023-08-06T07:43:52;16.70;99.90
1578;DHT22;57623;53.608;10.004;2023-08-06T07:46:20;16.80;99.90
1578;DHT22;57623;53.608;10.004;2023-08-06T07:48:47;16.90;99.90
1578;DHT22;57623;53.608;10.004;2023-08-06T07:51:15;16.90;99.90
1578;DHT22;57623;53.608;10.004;2023-08-06T07:53:44;16.90;99.90
1578;DHT22;57623;53.608;10.004;2023-08-06T07:56:12;16.90;99.90
1578;DHT22;57623;53.608;10.004;2023-08-06T07:58:41;16.90;99.90
1578;DHT22;57623;53.608;10.004;2023-08-06T08:01:09;16.90;99.90
1578;DHT22;57623;53.608;10.004;2023-08-06T08:03:37;17.00;99.90
1578;DHT22;57623;53.608;10.004;2023-08-06T08:06:05;17.00;99.90
1578;DHT22;57623;53.608;10.004;2023-08-06T08:08:33;17.10;99.90
1578;DHT22;57623;53.608;10.004;2023-08-06T08:11:05;17.10;99.90
1578;DHT22;57623;53.608;10.004;2023-08-06T08:13:33;17.20;99.90
1578;DHT22;57623;53.608;10.004;2023-08-06T08:16:03;17.10;99.90
1578;DHT22;57623;53.608;10.004;2023-08-06T08:18:31;17.10;99.90
1578;DHT22;57623;53.608;10.004;2023-08-06T08:20:59;17.20;99.90
1578;DHT22;57623;53.608;10.004;2023-08-06T08:23:27;17.20;99.90
1578;DHT22;57623;53.608;10.004;2023-08-06T08:25:58;17.20;99.90
1578;DHT22;57623;53.608;10.004;2023-08-06T08:28:26;17.20;99.90
1578;DHT22;57623;53.608;10.004;2023-08-06T08:30:54;17.20;99.90
1578;DHT22;57623;53.608;10.004;2023-08-06T08:33:23;17.30;99.90
1578;DHT22;57623;53.608;10.004;2023-08-06T08:35:51;17.20;99.90
1578;DHT22;57623;53.608;10.004;2023-08-06T08:38:19;17.20;99.90
1578;DHT22;57623;53.608;10.004;2023-08-06T08:40:52;17.30;99.90
1578;DHT22;57623;53.608;10.004;2023-08-06T08:43:22;17.40;99.90
1578;DHT22;57623;53.608;10.004;2023-08-06T08:45:51;17.40;99.90
1578;DHT22;57623;53.608;10.004;2023-08-06T08:48:23;17.50;99.90
1578;DHT22;57623;53.608;10.004;2023-08-06T08:50:51;17.50;99.90
1578;DHT22;57623;53.608;10.004;2023-08-06T08:53:21;17.50;99.90
1578;DHT22;57623;53.608;10.004;2023-08-06T08:55:49;17.40;99.90
1578;DHT22;57623;53.608;10.004;2023-08-06T08:58:18;17.40;99.90
1578;DHT22;57623;53.608;10.004;2023-08-06T09:00:46;17.50;99.90
1578;DHT22;57623;53.608;10.004;2023-08-06T09:03:16;17.50;99.90
1578;DHT22;57623;53.608;10.004;2023-08-06T09:05:49;17.50;99.90
1578;DHT22;57623;53.608;10.004;2023-08-06T09:08:24;17.50;99.90
1578;DHT22;57623;53.608;10.004;2023-08-06T09:10:54;17.50;99.90
1578;DHT22;57623;53.608;10.004;2023-08-06T09:13:23;17.50;99.90
1578;DHT22;57623;53.608;10.004;2023-08-06T09:15:51;17.50;99.90
1578;DHT22;57623;53.608;10.004;2023-08-06T09:18:25;17.50;99.90
1578;DHT22;57623;53.608;10.004;2023-08-06T09:20:56;17.50;99.90
1578;DHT22;57623;53.608;10.004;2023-08-06T09:23:28;17.50;99.90
1578;DHT22;57623;53.608;10.004;2023-08-06T09:25:58;17.50;99.90
1578;DHT22;57623;53.608;10.004;2023-08-06T09:28:36;17.50;99.90
1578;DHT22;57623;53.608;10.004;2023-08-06T09:31:06;17.50;99.90
1578;DHT22;57623;53.608;10.004;2023-08-06T09:33:36;17.40;99.90
1578;DHT22;57623;53.608;10.004;2023-08-06T09:36:11;17.40;99.90
1578;DHT22;57623;53.608;10.004;2023-08-06T09:38:40;17.40;99.90
1578;DHT22;57623;53.608;10.004;2023-08-06T09:41:08;17.30;99.90
1578;DHT22;57623;53.608;10.004;2023-08-06T09:43:40;17.30;99.90
1578;DHT22;57623;53.608;10.004;2023-08-06T09:46:12;17.30;99.90
1578;DHT22;57623;53.608;10.004;2023-08-06T09:48:45;17.30;99.90
1578;DHT22;57623;53.608;10.004;2023-08-06T09:51:15;17.30;99.90
1578;DHT22;57623;53.608;10.004;2023-08-06T09:53:44;17.40;99.90
1578;DHT22;57623;53.608;10.004;2023-08-06T09:56:13;17.50;99.90
1578;DHT22;57623;53.608;10.004;2023-08-06T09:58:44;17.50;99.90
1578;DHT22;57623;53.608;10.004;2023-08-06T10:01:14;17.60;99.90
1578;DHT22;57623;53.608;10.004;2023-08-06T10:03:43;17.60;99.90
1578;DHT22;57623;53.608;10.004;2023-08-06T10:06:12;17.60;99.90
1578;DHT22;57623;53.608;10.004;2023-08-06T10:08:42;17.60;99.90
1578;DHT22;57623;53.608;10.004;2023-08-06T10:11:10;17.60;99.90
1578;DHT22;57623;53.608;10.004;2023-08-06T10:13:39;17.70;99.90
1578;DHT22;57623;53.608;10.004;2023-08-06T10:16:07;17.70;99.90
1578;DHT22;57623;53.608;10.004;2023-08-06T10:18:37;17.70;99.90
1578;DHT22;57623;53.608;10.004;2023-08-06T10:21:07;17.70;99.90
1578;DHT22;57623;53.608;10.004;2023-08-06T10:23:36;17.70;99.90
1578;DHT22;57623;53.608;10.004;2023-08-06T10:26:06;17.80;99.90
1578;DHT22;57623;53.608;10.004;2023-08-06T10:28:35;17.80;99.90
1578;DHT22;57623;53.608;10.004;2023-08-06T10:31:04;17.80;99.90
1578;DHT22;57623;53.608;10.004;2023-08-06T10:33:43;17.80;99.90
1578;DHT22;57623;53.608;10.004;2023-08-06T10:36:11;17.90;99.90
1578;DHT22;57623;53.608;10.004;2023-08-06T10:38:46;17.90;99.90
1578;DHT22;57623;53.608;10.004;2023-08-06T10:41:23;18.00;99.90
1578;DHT22;57623;53.608;10.004;2023-08-06T10:43:51;17.90;99.90
1578;DHT22;57623;53.608;10.004;2023-08-06T10:46:23;17.90;99.90
1578;DHT22;57623;53.608;10.004;2023-08-06T10:48:51;18.00;99.90
1578;DHT22;57623;53.608;10.004;2023-08-06T10:51:19;18.00;99.90
1578;DHT22;57623;53.608;10.004;2023-08-06T10:53:49;18.00;99.90
1578;DHT22;57623;53.608;10.004;2023-08-06T10:56:20;18.00;99.90
1578;DHT22;57623;53.608;10.004;2023-08-06T10:58:50;18.00;99.90
1578;DHT22;57623;53.608;10.004;2023-08-06T11:01:18;18.00;99.90
1578;DHT22;57623;53.608;10.004;2023-08-06T11:03:47;18.00;99.90
1578;DHT22;57623;53.608;10.004;2023-08-06T11:06:17;17.90;99.90
1578;DHT22;57623;53.608;10.004;2023-08-06T11:08:47;17.90;99.90
1578;DHT22;57623;53.608;10.004;2023-08-06T11:11:17;17.80;99.90
1578;DHT22;57623;53.608;10.004;2023-08-06T11:13:47;17.90;99.90
1578;DHT22;57623;53.608;10.004;2023-08-06T11:16:18;17.80;99.90
1578;DHT22;57623;53.608;10.004;2023-08-06T11:18:46;17.90;99.90
1578;DHT22;57623;53.608;10.004;2023-08-06T11:21:19;17.90;99.90
1578;DHT22;57623;53.608;10.004;2023-08-06T11:23:47;17.80;99.90
1578;DHT22;57623;53.608;10.004;2023-08-06T11:26:18;17.80;99.90
1578;DHT22;57623;53.608;10.004;2023-08-06T11:28:48;17.80;99.90
1578;DHT22;57623;53.608;10.004;2023-08-06T11:31:20;17.80;99.90
1578;DHT22;57623;53.608;10.004;2023-08-06T11:33:49;17.90;99.90
1578;DHT22;57623;53.608;10.004;2023-08-06T11:36:28;17.90;99.90
1578;DHT22;57623;53.608;10.004;2023-08-06T11:38:56;17.90;99.90
1578;DHT22;57623;53.608;10.004;2023-08-06T11:41:25;17.80;99.90
1578;DHT22;57623;53.608;10.004;2023-08-06T11:43:54;17.70;99.90
1578;DHT22;57623;53.608;10.004;2023-08-06T11:46:22;17.70;99.90
1578;DHT22;57623;53.608;10.004;2023-08-06T11:48:52;17.70;99.90
1578;DHT22;57623;53.608;10.004;2023-08-06T11:51:22;17.70;99.90
1578;DHT22;57623;53.608;10.004;2023-08-06T11:53:55;17.60;99.90
1578;DHT22;57623;53.608;10.004;2023-08-06T11:56:24;17.70;99.90
1578;DHT22;57623;53.608;10.004;2023-08-06T11:58:54;17.70;99.90
1578;DHT22;57623;53.608;10.004;2023-08-06T12:01:23;17.70;99.90
1578;DHT22;57623;53.608;10.004;2023-08-06T12:03:51;17.70;99.90
1578;DHT22;57623;53.608;10.004;2023-08-06T12:06:19;17.70;99.90
1578;DHT22;57623;53.608;10.004;2023-08-06T12:08:47;17.70;99.90
1578;DHT22;57623;53.608;10.004;2023-08-06T12:11:17;17.70;99.90
1578;DHT22;57623;53.608;10.004;2023-08-06T12:13:45;17.70;99.90
1578;DHT22;57623;53.608;10.004;2023-08-06T12:16:14;17.70;99.90
1578;DHT22;57623;53.608;10.004;2023-08-06T12:18:44;17.70;99.90
1578;DHT22;57623;53.608;10.004;2023-08-06T12:21:12;17.70;99.90
1578;DHT22;57623;53.608;10.004;2023-08-06T12:23:40;17.70;99.90
1578;DHT22;57623;53.608;10.004;2023-08-06T12:26:08;17.70;99.90
1578;DHT22;57623;53.608;10.004;2023-08-06T12:28:36;17.70;99.90
1578;DHT22;57623;53.608;10.004;2023-08-06T12:31:05;17.80;99.90
1578;DHT22;57623;53.608;10.004;2023-08-06T12:33:34;17.80;99.90
1578;DHT22;57623;53.608;10.004;2023-08-06T12:36:03;17.80;99.90
1578;DHT22;57623;53.608;10.004;2023-08-06T12:38:31;17.80;99.90
1578;DHT22;57623;53.608;10.004;2023-08-06T12:41:00;17.80;99.90
1578;DHT22;57623;53.608;10.004;2023-08-06T12:43:28;17.90;99.90
1578;DHT22;57623;53.608;10.004;2023-08-06T12:45:56;18.00;99.90
1578;DHT22;57623;53.608;10.004;2023-08-06T12:48:24;18.00;99.90
1578;DHT22;57623;53.608;10.004;2023-08-06T12:50:54;18.10;99.90
1578;DHT22;57623;53.608;10.004;2023-08-06T12:53:22;18.10;99.90
1578;DHT22;57623;53.608;10.004;2023-08-06T12:55:50;18.20;99.90
1578;DHT22;57623;53.608;10.004;2023-08-06T12:58:18;18.30;99.90
1578;DHT22;57623;53.608;10.004;2023-08-06T13:00:46;18.40;99.90
1578;DHT22;57623;53.608;10.004;2023-08-06T13:03:14;18.50;99.90
1578;DHT22;57623;53.608;10.004;2023-08-06T13:05:42;18.70;99.90
1578;DHT22;57623;53.608;10.004;2023-08-06T13:08:13;18.80;99.90
1578;DHT22;57623;53.608;10.004;2023-08-06T13:10:41;18.90;99.90
1578;DHT22;57623;53.608;10.004;2023-08-06T13:13:09;19.00;99.90
1578;DHT22;57623;53.608;10.004;2023-08-06T13:15:37;19.10;99.90
1578;DHT22;57623;53.608;10.004;2023-08-06T13:18:05;19.10;99.90
1578;DHT22;57623;53.608;10.004;2023-08-06T13:20:34;19.20;99.90
1578;DHT22;57623;53.608;10.004;2023-08-06T13:23:02;19.50;99.90
1578;DHT22;57623;53.608;10.004;2023-08-06T13:25:31;19.70;99.90
1578;DHT22;57623;53.608;10.004;2023-08-06T13:28:03;19.80;99.90
1578;DHT22;57623;53.608;10.004;2023-08-06T13:30:31;19.90;99.90
1578;DHT22;57623;53.608;10.004;2023-08-06T13:33:01;20.00;99.90
1578;DHT22;57623;53.608;10.004;2023-08-06T13:35:31;20.00;99.90
1578;DHT22;57623;53.608;10.004;2023-08-06T13:37:59;20.00;99.90
1578;DHT22;57623;53.608;10.004;2023-08-06T13:40:33;20.10;99.90
1578;DHT22;57623;53.608;10.004;2023-08-06T13:43:01;20.10;99.90
1578;DHT22;57623;53.608;10.004;2023-08-06T13:45:29;20.10;99.90
1578;DHT22;57623;53.608;10.004;2023-08-06T13:47:58;20.10;99.90
1578;DHT22;57623;53.608;10.004;2023-08-06T13:50:26;20.10;99.90
1578;DHT22;57623;53.608;10.004;2023-08-06T13:52:54;20.10;99.90
1578;DHT22;57623;53.608;10.004;2023-08-06T13:55:23;20.10;99.90
1578;DHT22;57623;53.608;10.004;2023-08-06T13:57:52;20.00;99.90
1578;DHT22;57623;53.608;10.004;2023-08-06T14:00:20;20.00;99.90
1578;DHT22;57623;53.608;10.004;2023-08-06T14:02:48;20.10;99.90
1578;DHT22;57623;53.608;10.004;2023-08-06T14:05:17;20.10;99.90
1578;DHT22;57623;53.608;10.004;2023-08-06T14:07:45;20.10;99.90
1578;DHT22;57623;53.608;10.004;2023-08-06T14:10:13;20.20;99.90
1578;DHT22;57623;53.608;10.004;2023-08-06T14:12:41;20.20;99.90
1578;DHT22;57623;53.608;10.004;2023-08-06T14:15:13;20.20;99.90
1578;DHT22;57623;53.608;10.004;2023-08-06T14:17:41;20.30;99.90
1578;DHT22;57623;53.608;10.004;2023-08-06T14:20:10;20.40;99.90
1578;DHT22;57623;53.608;10.004;2023-08-06T14:22:39;20.40;99.90
1578;DHT22;57623;53.608;10.004;2023-08-06T14:25:07;20.30;99.90
1578;DHT22;57623;53.608;10.004;2023-08-06T14:27:35;20.30;99.90
1578;DHT22;57623;53.608;10.004;2023-08-06T14:30:06;20.20;99.90
1578;DHT22;57623;53.608;10.004;2023-08-06T14:32:35;20.10;99.90
1578;DHT22;57623;53.608;10.004;2023-08-06T14:35:04;20.00;99.90
1578;DHT22;57623;53.608;10.004;2023-08-06T14:37:32;20.00;99.90
1578;DHT22;57623;53.608;10.004;2023-08-06T14:40:00;19.90;99.90
1578;DHT22;57623;53.608;10.004;2023-08-06T14:42:29;19.80;99.90
1578;DHT22;57623;53.608;10.004;2023-08-06T14:44:57;19.80;99.90
1578;DHT22;57623;53.608;10.004;2023-08-06T14:47:24;19.80;99.90
1578;DHT22;57623;53.608;10.004;2023-08-06T14:49:54;19.80;99.90
1578;DHT22;57623;53.608;10.004;2023-08-06T14:52:22;19.90;99.90
1578;DHT22;57623;53.608;10.004;2023-08-06T14:54:50;19.80;99.90
1578;DHT22;57623;53.608;10.004;2023-08-06T14:57:18;19.70;99.90
1578;DHT22;57623;53.608;10.004;2023-08-06T14:59:48;19.60;99.90
1578;DHT22;57623;53.608;10.004;2023-08-06T15:02:16;19.50;99.90
1578;DHT22;57623;53.608;10.004;2023-08-06T15:04:44;19.50;99.90
1578;DHT22;57623;53.608;10.004;2023-08-06T15:07:13;19.40;99.90
1578;DHT22;57623;53.608;10.004;2023-08-06T15:09:41;19.40;99.90
1578;DHT22;57623;53.608;10.004;2023-08-06T15:12:29;19.30;99.90
1578;DHT22;57623;53.608;10.004;2023-08-06T15:14:58;19.20;99.90
1578;DHT22;57623;53.608;10.004;2023-08-06T15:17:27;19.20;99.90
1578;DHT22;57623;53.608;10.004;2023-08-06T15:19:56;19.20;99.90
1578;DHT22;57623;53.608;10.004;2023-08-06T15:22:27;19.20;99.90
1578;DHT22;57623;53.608;10.004;2023-08-06T15:24:55;19.20;99.90
1578;DHT22;57623;53.608;10.004;2023-08-06T15:27:24;19.10;99.90
1578;DHT22;57623;53.608;10.004;2023-08-06T15:29:52;19.10;99.90
1578;DHT22;57623;53.608;10.004;2023-08-06T15:32:20;19.10;99.90
1578;DHT22;57623;53.608;10.004;2023-08-06T15:34:49;19.00;99.90
1578;DHT22;57623;53.608;10.004;2023-08-06T15:37:17;19.00;99.90
1578;DHT22;57623;53.608;10.004;2023-08-06T15:39:47;19.00;99.90